Gaschem Phoenix — ELUO6 — position and weather

sailwx.info

Track history (hours):
 
Tides and Currents Weather Stations Pressure Air Temp Water Temp Dewpoint Dewpoint Depression Visibility Wind Speed Wind Dir Waves Ship Positions

Gaschem Phoenix

Last reported at 2014-Nov-22 19:33 UTC. Time now 2014-Nov-25 00:43 UTC.
Position N 35°04' E 139°40'.

Length 100 m; draft 5.9 m.

Type: Ship. MMSI: 636090235.

Date/timePositionNaut miles runAvg speedWind from/ knotsBaromVisibWave heightAir tempDewpointWater temp
2014-Nov-22 19:33N 35°04' E 139°40'6 6.3
2014-Nov-22 18:33N 35°10' E 139°44'9 8.8
2014-Nov-22 17:34N 35°18' E 139°44'1110.7
2014-Nov-22 16:34N 35°28' E 139°49'11 0.8
2014-Nov-22 03:14N 35°31' E 140°02'3 4.7
2014-Nov-22 02:33N 35°31' E 139°58'6 6.3
2014-Nov-22 01:33N 35°28' E 139°52'7 7.0
2014-Nov-22 00:33N 35°23' E 139°46'7 6.6
2014-Nov-21 23:33N 35°16' E 139°46'7 7.0
2014-Nov-21 22:33N 35°09' E 139°46'7 7.1
2014-Nov-21 21:32N 35°03' E 139°42'  
2014-Nov-17 20:29N 31°01' E 122°21'1011.2
2014-Nov-17 19:33N 31°03' E 122°09'1313.1
2014-Nov-17 18:33N 31°08' E 121°55'1514.9
2014-Nov-17 17:34N 31°18' E 121°43'1110.9
2014-Nov-17 16:34N 31°24' E 121°32'1010.1
2014-Nov-17 15:33N 31°31' E 121°23'1312.6
2014-Nov-17 14:33N 31°40' E 121°12'1312.8
2014-Nov-17 13:33N 31°47' E 120°60'1212.3
2014-Nov-17 12:34N 31°57' E 120°52'1313.1
2014-Nov-17 11:34N 31°60' E 120°37'1212.2
2014-Nov-17 10:33N 31°60' E 120°22'1413.7
2014-Nov-17 09:34N 31°57' E 120°06'3 0.1
2014-Nov-16 09:33N 31°58' E 120°03'1110.5
2014-Nov-16 08:33N 31°56' E 120°15'1111.4
2014-Nov-16 07:33N 32°03' E 120°26'10 9.8
2014-Nov-16 06:33N 32°00' E 120°37'1111.0
2014-Nov-16 05:33N 31°60' E 120°50'1211.5
2014-Nov-16 04:33N 31°49' E 120°55'1111.1
2014-Nov-16 03:33N 31°44' E 121°07'1212.0
2014-Nov-16 02:33N 31°36' E 121°17'1212.0
2014-Nov-16 01:33N 31°28' E 121°28'8 8.4
2014-Nov-16 00:33N 31°23' E 121°36'1010.0
2014-Nov-15 23:33N 31°17' E 121°45'1212.0
2014-Nov-15 22:33N 31°08' E 121°54'1211.7
2014-Nov-15 21:33N 31°04' E 122°07'9 8.8
2014-Nov-15 20:33N 31°03' E 122°17'46511.6
2014-Nov-14 04:27N 34°03' E 130°46'  
Track history (hours):
 
Tides and Currents Weather Stations Pressure Air Temp Water Temp Dewpoint Dewpoint Depression Visibility Wind Speed Wind Dir Waves Ship Positions

Gaschem Phoenix

Last reported at 2014-Nov-22 19:33 UTC. Time now 2014-Nov-25 00:43 UTC.
Position N 35°04' E 139°40'.

Length 100 m; draft 5.9 m.

Type: Ship. MMSI: 636090235.

Date/timePositionNaut miles runAvg speedWind from/ knotsBaromVisibWave heightAir tempDewpointWater temp
2014-Nov-22 19:33N 35°04' E 139°40'6 6.3
2014-Nov-22 18:33N 35°10' E 139°44'9 8.8
2014-Nov-22 17:34N 35°18' E 139°44'1110.7
2014-Nov-22 16:34N 35°28' E 139°49'11 0.8
2014-Nov-22 03:14N 35°31' E 140°02'3 4.7
2014-Nov-22 02:33N 35°31' E 139°58'6 6.3
2014-Nov-22 01:33N 35°28' E 139°52'7 7.0
2014-Nov-22 00:33N 35°23' E 139°46'7 6.6
2014-Nov-21 23:33N 35°16' E 139°46'7 7.0
2014-Nov-21 22:33N 35°09' E 139°46'7 7.1
2014-Nov-21 21:32N 35°03' E 139°42'  
2014-Nov-17 20:29N 31°01' E 122°21'1011.2
2014-Nov-17 19:33N 31°03' E 122°09'1313.1
2014-Nov-17 18:33N 31°08' E 121°55'1514.9
2014-Nov-17 17:34N 31°18' E 121°43'1110.9
2014-Nov-17 16:34N 31°24' E 121°32'1010.1
2014-Nov-17 15:33N 31°31' E 121°23'1312.6
2014-Nov-17 14:33N 31°40' E 121°12'1312.8
2014-Nov-17 13:33N 31°47' E 120°60'1212.3
2014-Nov-17 12:34N 31°57' E 120°52'1313.1
2014-Nov-17 11:34N 31°60' E 120°37'1212.2
2014-Nov-17 10:33N 31°60' E 120°22'1413.7
2014-Nov-17 09:34N 31°57' E 120°06'3 0.1
2014-Nov-16 09:33N 31°58' E 120°03'1110.5
2014-Nov-16 08:33N 31°56' E 120°15'1111.4
2014-Nov-16 07:33N 32°03' E 120°26'10 9.8
2014-Nov-16 06:33N 32°00' E 120°37'1111.0
2014-Nov-16 05:33N 31°60' E 120°50'1211.5
2014-Nov-16 04:33N 31°49' E 120°55'1111.1
2014-Nov-16 03:33N 31°44' E 121°07'1212.0
2014-Nov-16 02:33N 31°36' E 121°17'1212.0
2014-Nov-16 01:33N 31°28' E 121°28'8 8.4
2014-Nov-16 00:33N 31°23' E 121°36'1010.0
2014-Nov-15 23:33N 31°17' E 121°45'1212.0
2014-Nov-15 22:33N 31°08' E 121°54'1211.7
2014-Nov-15 21:33N 31°04' E 122°07'9 8.8
2014-Nov-15 20:33N 31°03' E 122°17'46511.6
2014-Nov-14 04:27N 34°03' E 130°46'  

Dump ship's entire track history